地図

経路データ

SID SEASON NUMBER BASIN SUBBASIN NAME ISO_TIME NATURE LAT LON WMO_WIND WMO_PRES WMO_AGENCY TRACK_TYPE DIST2LAND LANDFALL IFLAG USA_AGENCY USA_ATCF_ID USA_LAT USA_LON USA_RECORD USA_STATUS USA_WIND USA_PRES USA_SSHS USA_R34_NE USA_R34_SE USA_R34_SW USA_R34_NW USA_R50_NE USA_R50_SE USA_R50_SW USA_R50_NW USA_R64_NE USA_R64_SE USA_R64_SW USA_R64_NW USA_POCI USA_ROCI USA_RMW USA_EYE TOKYO_LAT TOKYO_LON TOKYO_GRADE TOKYO_WIND TOKYO_PRES TOKYO_R50_DIR TOKYO_R50_LONG TOKYO_R50_SHORT TOKYO_R30_DIR TOKYO_R30_LONG TOKYO_R30_SHORT TOKYO_LAND CMA_LAT CMA_LON CMA_CAT CMA_WIND CMA_PRES HKO_LAT HKO_LON HKO_CAT HKO_WIND HKO_PRES NEWDELHI_LAT NEWDELHI_LON NEWDELHI_GRADE NEWDELHI_WIND NEWDELHI_PRES NEWDELHI_CI NEWDELHI_DP NEWDELHI_POCI REUNION_LAT REUNION_LON REUNION_TYPE REUNION_WIND REUNION_PRES REUNION_TNUM REUNION_CI REUNION_RMW REUNION_R34_NE REUNION_R34_SE REUNION_R34_SW REUNION_R34_NW REUNION_R50_NE REUNION_R50_SE REUNION_R50_SW REUNION_R50_NW REUNION_R64_NE REUNION_R64_SE REUNION_R64_SW REUNION_R64_NW BOM_LAT BOM_LON BOM_TYPE BOM_WIND BOM_PRES BOM_TNUM BOM_CI BOM_RMW BOM_R34_NE BOM_R34_SE BOM_R34_SW BOM_R34_NW BOM_R50_NE BOM_R50_SE BOM_R50_SW BOM_R50_NW BOM_R64_NE BOM_R64_SE BOM_R64_SW BOM_R64_NW BOM_ROCI BOM_POCI BOM_EYE BOM_POS_METHOD BOM_PRES_METHOD NADI_LAT NADI_LON NADI_CAT NADI_WIND NADI_PRES WELLINGTON_LAT WELLINGTON_LON WELLINGTON_WIND WELLINGTON_PRES DS824_LAT DS824_LON DS824_STAGE DS824_WIND DS824_PRES TD9636_LAT TD9636_LON TD9636_STAGE TD9636_WIND TD9636_PRES TD9635_LAT TD9635_LON TD9635_WIND TD9635_PRES TD9635_ROCI NEUMANN_LAT NEUMANN_LON NEUMANN_CLASS NEUMANN_WIND NEUMANN_PRES MLC_LAT MLC_LON MLC_CLASS MLC_WIND MLC_PRES USA_GUST BOM_GUST BOM_GUST_PER REUNION_GUST REUNION_GUST_PER USA_SEAHGT USA_SEARAD_NE USA_SEARAD_SE USA_SEARAD_SW USA_SEARAD_NW STORM_SPEED STORM_DIR
1977225N18254 1977 65 EP MM DOREEN 1977-08-13 00:00:00 TS 17.6000 -106.500 30 hurdat_epa main 253 253 O________OO___ hurdat_epa EP041977 17.6000 -106.500 TD 30 -1 17.6000 -106.500 TC 30 17.6000 -106.500 1 30 5 307
1977225N18254 1977 65 EP MM DOREEN 1977-08-13 03:00:00 TS 17.7436 -106.704 main 260 253 P________PP___ EP041977 17.7276 -106.715 TD 30 -1 17.7276 -106.715 TC 30 17.8079 -106.661 1 30 5 311
1977225N18254 1977 65 EP MM DOREEN 1977-08-13 06:00:00 TS 17.9225 -106.885 30 hurdat_epa main 261 253 O________OP___ hurdat_epa EP041977 17.9000 -106.900 TD 30 -1 17.9000 -106.900 TC 30 18.0125 -106.827 1 30 5 323
1977225N18254 1977 65 EP MM DOREEN 1977-08-13 09:00:00 TS 18.1561 -107.035 main 245 245 P________PP___ EP041977 18.1424 -107.043 TD 30 -1 18.1424 -107.043 TC 30 18.2109 -107.005 1 30 6 328
1977225N18254 1977 65 EP MM DOREEN 1977-08-13 12:00:00 TS 18.4000 -107.200 30 hurdat_epa main 247 247 O________OO___ hurdat_epa EP041977 18.4000 -107.200 TD 30 -1 18.4000 -107.200 TC 30 18.4000 -107.200 1 30 6 320
1977225N18254 1977 65 EP MM DOREEN 1977-08-13 15:00:00 TS 18.6077 -107.437 main 252 252 P________PP___ EP041977 18.6150 -107.442 TD 37 0 18.6150 -107.442 TC 37 18.5782 -107.415 1 35 6 310
1977225N18254 1977 65 EP MM DOREEN 1977-08-13 18:00:00 TS 18.7900 -107.689 45 hurdat_epa main 266 266 O________OP___ hurdat_epa EP041977 18.8000 -107.700 TS 45 0 18.8000 -107.700 TC 45 18.7500 -107.643 1 40 6 308
1977225N18254 1977 65 EP MM DOREEN 1977-08-13 21:00:00 TS 18.9443 -107.901 main 280 275 P________PP___ EP041977 18.9500 -107.908 TS 47 0 18.9500 -107.908 TC 47 18.9219 -107.874 1 45 5 309
1977225N18254 1977 65 EP MM DOREEN 1977-08-14 00:00:00 TS 19.1000 -108.100 50 hurdat_epa main 290 290 O________OO___ hurdat_epa EP041977 19.1000 -108.100 TS 50 0 19.1000 -108.100 TC 50 19.1000 -108.100 2 50 5 313
1977225N18254 1977 65 EP MM DOREEN 1977-08-14 03:00:00 TS 19.2901 -108.299 main 298 298 P________PP___ EP041977 19.2925 -108.300 TS 52 0 19.2925 -108.300 TC 52 19.2804 -108.295 2 51 5 316
1977225N18254 1977 65 EP MM DOREEN 1977-08-14 06:00:00 TS 19.4939 -108.497 55 hurdat_epa main 309 309 O________OP___ hurdat_epa EP041977 19.5000 -108.500 TS 55 0 19.5000 -108.500 TC 55 19.4697 -108.486 2 52 6 317
1977225N18254 1977 65 EP MM DOREEN 1977-08-14 09:00:00 TS 19.6948 -108.697 main 322 322 P________PP___ EP041977 19.7000 -108.700 TS 55 0 19.7000 -108.700 TC 55 19.6741 -108.683 2 53 6 317
1977225N18254 1977 65 EP MM DOREEN 1977-08-14 12:00:00 TS 19.9000 -108.900 55 hurdat_epa main 338 321 O________OO___ hurdat_epa EP041977 19.9000 -108.900 TS 55 0 19.9000 -108.900 TC 55 19.9000 -108.900 2 55 5 316
1977225N18254 1977 65 EP MM DOREEN 1977-08-14 15:00:00 TS 20.0878 -109.098 main 321 295 P________PP___ EP041977 20.0774 -109.078 TS 60 0 20.0774 -109.078 TC 60 20.1293 -109.178 2 57 6 316
1977225N18254 1977 65 EP MM DOREEN 1977-08-14 18:00:00 TS 20.3166 -109.334 65 979 hurdat_epa main 295 257 O________OP___ hurdat_epa EP041977 20.3000 -109.300 HU 65 979 1 20.3000 -109.300 TC 65 979 20.3829 -109.472 2 60 8 314
1977225N18254 1977 65 EP MM DOREEN 1977-08-14 21:00:00 TS 20.6242 -109.683 main 257 212 P________PP___ EP041977 20.6127 -109.665 HU 65 1 20.6127 -109.665 TC 65 20.6700 -109.756 2 62 9 318
1977225N18254 1977 65 EP MM DOREEN 1977-08-15 00:00:00 TS 21.0000 -110.000 65 hurdat_epa main 212 168 O________OO___ hurdat_epa EP041977 21.0000 -110.000 HU 65 1 21.0000 -110.000 TC 65 21.0000 -110.000 4 65 9 333
1977225N18254 1977 65 EP MM DOREEN 1977-08-15 03:00:00 TS 21.4253 -110.130 main 168 124 P________PP___ EP041977 21.4424 -110.130 HU 65 1 21.4424 -110.130 TC 65 21.3570 -110.129 4 65 9 348
1977225N18254 1977 65 EP MM DOREEN 1977-08-15 06:00:00 TS 21.8718 -110.205 65 hurdat_epa main 113 73 O________OP___ hurdat_epa EP041977 21.9000 -110.200 HU 65 1 21.9000 -110.200 TC 65 21.7592 -110.223 4 65 9 347
1977225N18254 1977 65 EP MM DOREEN 1977-08-15 09:00:00 TS 22.2814 -110.340 main 73 52 P________PP___ EP041977 22.3000 -110.343 HU 65 1 22.3000 -110.343 TC 65 22.2069 -110.330 4 65 9 342
1977225N18254 1977 65 EP MM DOREEN 1977-08-15 12:00:00 TS 22.7000 -110.500 65 hurdat_epa main 55 51 O________OO___ hurdat_epa EP041977 22.7000 -110.500 HU 65 1 22.7000 -110.500 TC 65 22.7000 -110.500 4 65 9 343
1977225N18254 1977 65 EP MM DOREEN 1977-08-15 15:00:00 TS 23.1267 -110.620 main 52 23 P________PP___ EP041977 23.1046 -110.584 HU 65 1 23.1046 -110.584 TC 65 23.2153 -110.764 4 65 10 341
1977225N18254 1977 65 EP MM DOREEN 1977-08-15 18:00:00 TS 23.6349 -110.860 65 979 hurdat_epa main 30 10 O________OP___ hurdat_epa EP041977 23.6000 -110.800 HU 65 979 1 23.6000 -110.800 TC 65 979 23.7743 -111.102 4 65 14 329
1977225N18254 1977 65 EP MM DOREEN 1977-08-15 21:00:00 TS 24.2845 -111.368 main 10 0 P________PP___ EP041977 24.2629 -111.332 HU 65 1 24.2629 -111.332 TC 65 24.3712 -111.515 4 65 17 323
1977225N18254 1977 65 EP MM DOREEN 1977-08-16 00:00:00 TS 25.0000 -112.000 65 hurdat_epa main 0 0 O________OO___ hurdat_epa EP041977 25.0000 -112.000 HU 65 1 25.0000 -112.000 TC 65 25.0000 -112.000 4 65 18 322
1977225N18254 1977 65 EP MM DOREEN 1977-08-16 03:00:00 TS 25.6992 -112.588 main 50 24 P________PP___ EP041977 25.7072 -112.593 HU 57 0 25.7072 -112.593 TC 57 25.6675 -112.568 4 57 18 322
1977225N18254 1977 65 EP MM DOREEN 1977-08-16 06:00:00 TS 26.3918 -113.201 50 hurdat_epa main 24 0 O________OP___ hurdat_epa EP041977 26.4000 -113.200 TS 50 0 26.4000 -113.200 TC 50 26.3589 -113.203 4 50 18 321
1977225N18254 1977 65 EP MM DOREEN 1977-08-16 09:00:00 TS 27.0670 -113.847 main 0 0 P________PP___ EP041977 27.0723 -113.843 TS 42 0 27.0723 -113.843 TC 42 27.0456 -113.862 4 42 18 319
1977225N18254 1977 65 EP MM DOREEN 1977-08-16 12:00:00 TS 27.7000 -114.500 35 hurdat_epa main 0 0 O________OO___ hurdat_epa EP041977 27.7000 -114.500 TS 35 0 27.7000 -114.500 TC 35 27.7000 -114.500 2 35 17 316
1977225N18254 1977 65 EP MM DOREEN 1977-08-16 15:00:00 TS 28.2749 -115.169 main 59 59 P________PP___ EP041977 28.2651 -115.188 TS 35 0 28.2651 -115.188 TC 35 28.3138 -115.091 2 35 16 315
1977225N18254 1977 65 EP MM DOREEN 1977-08-16 18:00:00 TS 28.8179 -115.770 35 hurdat_epa main 88 65 O________OP___ hurdat_epa EP041977 28.8000 -115.800 TS 35 0 28.8000 -115.800 TC 35 28.8895 -115.648 2 35 15 320
1977225N18254 1977 65 EP MM DOREEN 1977-08-16 21:00:00 TS 29.3818 -116.246 main 65 61 P________PP___ EP041977 29.3722 -116.268 TS 35 0 29.3722 -116.268 TC 35 29.4204 -116.156 2 35 13 326
1977225N18254 1977 65 EP MM DOREEN 1977-08-17 00:00:00 TS 29.9000 -116.600 35 hurdat_epa main 77 72 O________OO___ hurdat_epa EP041977 29.9000 -116.600 TS 35 0 29.9000 -116.600 TC 35 29.9000 -116.600 2 35 11 332
1977225N18254 1977 65 EP MM DOREEN 1977-08-17 03:00:00 TS 30.3277 -116.838 main 77 74 P________PP___ EP041977 30.3296 -116.801 TS 32 -1 30.3296 -116.801 TC 32 30.3202 -116.984 2 32 9 333
1977225N18254 1977 65 EP MM DOREEN 1977-08-17 06:00:00 TS 30.6988 -117.060 30 hurdat_epa main 83 79 O________OP___ hurdat_epa EP041977 30.7000 -117.000 TD 30 -1 30.7000 -117.000 TC 30 30.6938 -117.301 2 30 9 325
1977225N18254 1977 65 EP MM DOREEN 1977-08-17 09:00:00 TS 31.0493 -117.427 main 94 86 P________PP___ EP041977 31.0503 -117.392 TD 27 -1 31.0503 -117.392 TC 27 31.0455 -117.567 2 27 9 318
1977225N18254 1977 65 EP MM DOREEN 1977-08-17 12:00:00 TS 31.4000 -117.800 25 hurdat_epa main 106 104 O________OO___ hurdat_epa EP041977 31.4000 -117.800 TD 25 -1 31.4000 -117.800 TC 25 31.4000 -117.800 1 25 9 323
1977225N18254 1977 65 EP MM DOREEN 1977-08-17 15:00:00 TS 31.7892 -118.073 main 115 112 P________PP___ EP041977 31.7924 -118.088 TD 25 -1 31.7924 -118.088 TC 25 31.7764 -118.014 1 25 9 333
1977225N18254 1977 65 EP MM DOREEN 1977-08-17 18:00:00 TS 32.1946 -118.283 25 hurdat_epa main 117 111 O________OP___ hurdat_epa EP041977 32.2000 -118.300 TD 25 -1 32.2000 -118.300 TC 25 32.1731 -118.215 1 25 9 338
1977225N18254 1977 65 EP MM DOREEN 1977-08-17 21:00:00 TS 32.5987 -118.452 main 120 80 P________PP___ EP041977 32.6026 -118.462 TD 25 -1 32.6026 -118.462 TC 25 32.5833 -118.409 1 25 9 342
1977225N18254 1977 65 EP MM DOREEN 1977-08-18 00:00:00 TS 33.0000 -118.600 25 hurdat_epa main 80 O________OO___ hurdat_epa EP041977 33.0000 -118.600 TD 25 -1 33.0000 -118.600 TC 25 33.0000 -118.600 6 25 8 343

IBTrACS Databaseについて

本データベースは、米国NOAAが公開する1842年以降の世界の熱帯低気圧のベストトラックデータアーカイブInternational Best Track Archive for Climate Stewardship (IBTrACS)を、ウェブで閲覧しやすい形式に変換したものです。

最終更新日:2021-11-26